sensor_id;sensor_type;location;lat;lon;timestamp;pressure;altitude;pressure_sealevel;temperature;humidity
55550;BME280;41397;49.972;18.944;2024-03-06T00:01:07;102051.30;;;9.76;68.63
55550;BME280;41397;49.972;18.944;2024-03-06T00:04:13;102055.46;;;9.68;68.93
55550;BME280;41397;49.972;18.944;2024-03-06T00:07:14;102063.58;;;9.69;68.74
55550;BME280;41397;49.972;18.944;2024-03-06T00:10:15;102063.21;;;9.60;68.83
55550;BME280;41397;49.972;18.944;2024-03-06T00:13:16;102063.49;;;9.55;69.10
55550;BME280;41397;49.972;18.944;2024-03-06T00:16:17;102069.39;;;9.47;68.92
55550;BME280;41397;49.972;18.944;2024-03-06T00:19:19;102069.91;;;9.54;68.89
55550;BME280;41397;49.972;18.944;2024-03-06T00:22:21;102066.73;;;9.46;69.02
55550;BME280;41397;49.972;18.944;2024-03-06T00:25:22;102063.83;;;9.33;69.33
55550;BME280;41397;49.972;18.944;2024-03-06T00:28:24;102073.60;;;9.37;69.24
55550;BME280;41397;49.972;18.944;2024-03-06T00:31:25;102074.03;;;9.29;69.22
55550;BME280;41397;49.972;18.944;2024-03-06T00:34:26;102076.23;;;9.23;69.60
55550;BME280;41397;49.972;18.944;2024-03-06T00:37:29;102071.58;;;9.25;69.28
55550;BME280;41397;49.972;18.944;2024-03-06T00:40:32;102071.64;;;9.23;69.54
55550;BME280;41397;49.972;18.944;2024-03-06T00:43:33;102072.87;;;9.18;69.53
55550;BME280;41397;49.972;18.944;2024-03-06T00:46:35;102083.41;;;9.08;69.78
55550;BME280;41397;49.972;18.944;2024-03-06T00:49:36;102085.81;;;9.14;69.67
55550;BME280;41397;49.972;18.944;2024-03-06T00:52:40;102083.96;;;9.15;69.57
55550;BME280;41397;49.972;18.944;2024-03-06T00:55:43;102084.14;;;9.11;69.79
55550;BME280;41397;49.972;18.944;2024-03-06T00:58:44;102081.13;;;9.16;69.62
55550;BME280;41397;49.972;18.944;2024-03-06T01:01:45;102078.50;;;9.15;69.39
55550;BME280;41397;49.972;18.944;2024-03-06T01:04:48;102075.43;;;9.21;69.21
55550;BME280;41397;49.972;18.944;2024-03-06T01:07:49;102078.92;;;9.07;69.44
55550;BME280;41397;49.972;18.944;2024-03-06T01:10:51;102067.48;;;9.00;69.34
55550;BME280;41397;49.972;18.944;2024-03-06T01:13:53;102074.68;;;9.01;69.42
55550;BME280;41397;49.972;18.944;2024-03-06T01:16:56;102074.93;;;8.97;69.33
55550;BME280;41397;49.972;18.944;2024-03-06T01:19:57;102082.23;;;8.96;69.17
55550;BME280;41397;49.972;18.944;2024-03-06T01:23:01;102072.77;;;8.86;69.42
55550;BME280;41397;49.972;18.944;2024-03-06T01:26:02;102072.77;;;8.86;69.46
55550;BME280;41397;49.972;18.944;2024-03-06T01:29:04;102077.29;;;8.87;69.27
55550;BME280;41397;49.972;18.944;2024-03-06T01:32:05;102082.00;;;8.83;69.13
55550;BME280;41397;49.972;18.944;2024-03-06T01:35:07;102086.34;;;8.87;68.93
55550;BME280;41397;49.972;18.944;2024-03-06T01:38:08;102096.27;;;8.88;69.01
55550;BME280;41397;49.972;18.944;2024-03-06T01:41:14;102098.20;;;8.86;69.01
55550;BME280;41397;49.972;18.944;2024-03-06T01:44:16;102095.47;;;8.86;68.96
55550;BME280;41397;49.972;18.944;2024-03-06T01:47:18;102112.18;;;8.80;68.98
55550;BME280;41397;49.972;18.944;2024-03-06T01:50:19;102106.55;;;8.83;69.22
55550;BME280;41397;49.972;18.944;2024-03-06T01:53:21;102107.36;;;8.85;68.82
55550;BME280;41397;49.972;18.944;2024-03-06T01:56:22;102109.22;;;8.85;68.81
55550;BME280;41397;49.972;18.944;2024-03-06T01:59:25;102110.73;;;8.91;68.73
55550;BME280;41397;49.972;18.944;2024-03-06T02:02:27;102105.98;;;8.94;68.60
55550;BME280;41397;49.972;18.944;2024-03-06T02:05:29;102100.63;;;8.93;68.42
55550;BME280;41397;49.972;18.944;2024-03-06T02:08:31;102107.20;;;8.88;68.38
55550;BME280;41397;49.972;18.944;2024-03-06T02:11:33;102102.77;;;8.86;68.39
55550;BME280;41397;49.972;18.944;2024-03-06T02:14:35;102099.35;;;8.82;68.48
55550;BME280;41397;49.972;18.944;2024-03-06T02:17:37;102109.72;;;8.76;68.50
55550;BME280;41397;49.972;18.944;2024-03-06T02:20:38;102107.70;;;8.79;68.43
55550;BME280;41397;49.972;18.944;2024-03-06T02:23:40;102101.54;;;8.76;68.24
55550;BME280;41397;49.972;18.944;2024-03-06T02:26:41;102100.46;;;8.78;68.28
55550;BME280;41397;49.972;18.944;2024-03-06T02:29:45;102100.23;;;8.83;68.06
55550;BME280;41397;49.972;18.944;2024-03-06T02:32:47;102107.30;;;8.87;67.93
55550;BME280;41397;49.972;18.944;2024-03-06T02:35:48;102102.89;;;8.84;67.69
55550;BME280;41397;49.972;18.944;2024-03-06T02:38:49;102108.64;;;8.78;67.87
55550;BME280;41397;49.972;18.944;2024-03-06T02:41:53;102108.57;;;8.80;67.63
55550;BME280;41397;49.972;18.944;2024-03-06T02:44:54;102099.11;;;8.70;67.54
55550;BME280;41397;49.972;18.944;2024-03-06T02:47:55;102105.55;;;8.51;68.02
55550;BME280;41397;49.972;18.944;2024-03-06T02:50:57;102105.30;;;8.56;67.87
55550;BME280;41397;49.972;18.944;2024-03-06T02:54:01;102115.33;;;8.55;67.78
55550;BME280;41397;49.972;18.944;2024-03-06T02:57:02;102109.39;;;8.47;67.71
55550;BME280;41397;49.972;18.944;2024-03-06T03:00:04;102119.02;;;8.54;67.80
55550;BME280;41397;49.972;18.944;2024-03-06T03:03:05;102119.67;;;8.59;67.60
55550;BME280;41397;49.972;18.944;2024-03-06T03:06:10;102124.22;;;8.59;67.36
55550;BME280;41397;49.972;18.944;2024-03-06T03:09:11;102121.91;;;8.51;67.21
55550;BME280;41397;49.972;18.944;2024-03-06T03:12:13;102130.23;;;8.48;67.28
55550;BME280;41397;49.972;18.944;2024-03-06T03:15:14;102123.90;;;8.48;67.12
55550;BME280;41397;49.972;18.944;2024-03-06T03:18:17;102131.53;;;8.41;66.92
55550;BME280;41397;49.972;18.944;2024-03-06T03:21:19;102132.26;;;8.26;66.88
55550;BME280;41397;49.972;18.944;2024-03-06T03:24:20;102135.20;;;8.21;67.13
55550;BME280;41397;49.972;18.944;2024-03-06T03:27:22;102127.52;;;8.12;67.31
55550;BME280;41397;49.972;18.944;2024-03-06T03:30:25;102135.47;;;8.16;67.14
55550;BME280;41397;49.972;18.944;2024-03-06T03:33:27;102135.47;;;8.16;67.09
55550;BME280;41397;49.972;18.944;2024-03-06T03:36:28;102135.50;;;7.97;67.07
55550;BME280;41397;49.972;18.944;2024-03-06T03:39:30;102131.08;;;7.95;67.18
55550;BME280;41397;49.972;18.944;2024-03-06T03:42:33;102135.65;;;7.94;67.30
55550;BME280;41397;49.972;18.944;2024-03-06T03:45:35;102136.93;;;8.05;66.98
55550;BME280;41397;49.972;18.944;2024-03-06T03:48:36;102138.00;;;8.02;66.88
55550;BME280;41397;49.972;18.944;2024-03-06T03:51:39;102150.71;;;8.01;66.67
55550;BME280;41397;49.972;18.944;2024-03-06T03:54:41;102149.02;;;7.99;66.71
55550;BME280;41397;49.972;18.944;2024-03-06T03:57:42;102139.59;;;8.06;66.30
55550;BME280;41397;49.972;18.944;2024-03-06T04:00:43;102142.63;;;8.00;66.30
55550;BME280;41397;49.972;18.944;2024-03-06T04:03:45;102150.21;;;7.93;66.39
55550;BME280;41397;49.972;18.944;2024-03-06T04:06:49;102149.64;;;7.87;66.37
55550;BME280;41397;49.972;18.944;2024-03-06T04:09:50;102149.48;;;7.90;66.20
55550;BME280;41397;49.972;18.944;2024-03-06T04:12:52;102142.29;;;7.89;66.10
55550;BME280;41397;49.972;18.944;2024-03-06T04:15:55;102155.96;;;7.87;65.93
55550;BME280;41397;49.972;18.944;2024-03-06T04:18:57;102159.20;;;7.76;66.10
55550;BME280;41397;49.972;18.944;2024-03-06T04:21:59;102154.48;;;7.80;65.89
55550;BME280;41397;49.972;18.944;2024-03-06T04:25:00;102151.54;;;7.47;66.46
55550;BME280;41397;49.972;18.944;2024-03-06T04:28:03;102153.75;;;7.58;66.28
55550;BME280;41397;49.972;18.944;2024-03-06T04:31:06;102164.88;;;7.53;66.18
55550;BME280;41397;49.972;18.944;2024-03-06T04:34:07;102166.95;;;7.67;65.97
55550;BME280;41397;49.972;18.944;2024-03-06T04:37:08;102164.86;;;7.72;65.52
55550;BME280;41397;49.972;18.944;2024-03-06T04:40:10;102159.81;;;7.64;65.32
55550;BME280;41397;49.972;18.944;2024-03-06T04:43:14;102162.28;;;7.50;65.26
55550;BME280;41397;49.972;18.944;2024-03-06T04:46:15;102161.40;;;7.49;65.41
55550;BME280;41397;49.972;18.944;2024-03-06T04:49:16;102159.04;;;7.42;65.60
55550;BME280;41397;49.972;18.944;2024-03-06T04:52:17;102167.28;;;7.40;65.39
55550;BME280;41397;49.972;18.944;2024-03-06T04:55:22;102157.34;;;7.39;65.43
55550;BME280;41397;49.972;18.944;2024-03-06T04:58:23;102166.32;;;7.41;65.59
55550;BME280;41397;49.972;18.944;2024-03-06T05:01:24;102163.60;;;7.41;65.47
55550;BME280;41397;49.972;18.944;2024-03-06T05:04:25;102167.34;;;7.39;65.67
55550;BME280;41397;49.972;18.944;2024-03-06T05:07:31;102171.70;;;7.43;65.38
55550;BME280;41397;49.972;18.944;2024-03-06T05:10:32;102174.63;;;7.38;65.78
55550;BME280;41397;49.972;18.944;2024-03-06T05:13:33;102184.55;;;7.39;65.34
55550;BME280;41397;49.972;18.944;2024-03-06T05:16:34;102179.34;;;7.34;65.19
55550;BME280;41397;49.972;18.944;2024-03-06T05:19:38;102184.98;;;7.30;65.17
55550;BME280;41397;49.972;18.944;2024-03-06T05:22:39;102174.40;;;7.24;65.03
55550;BME280;41397;49.972;18.944;2024-03-06T05:25:40;102186.44;;;7.18;64.93
55550;BME280;41397;49.972;18.944;2024-03-06T05:28:42;102192.90;;;7.16;65.15
55550;BME280;41397;49.972;18.944;2024-03-06T05:31:46;102189.55;;;7.09;65.18
55550;BME280;41397;49.972;18.944;2024-03-06T05:34:47;102189.64;;;7.07;65.18
55550;BME280;41397;49.972;18.944;2024-03-06T05:37:48;102189.02;;;7.01;65.05
55550;BME280;41397;49.972;18.944;2024-03-06T05:40:49;102187.59;;;6.92;65.53
55550;BME280;41397;49.972;18.944;2024-03-06T05:43:55;102196.08;;;6.84;66.15
55550;BME280;41397;49.972;18.944;2024-03-06T05:46:59;102194.13;;;6.88;66.16
55550;BME280;41397;49.972;18.944;2024-03-06T05:50:01;102195.06;;;6.87;66.33
55550;BME280;41397;49.972;18.944;2024-03-06T05:53:05;102203.09;;;6.90;66.30
55550;BME280;41397;49.972;18.944;2024-03-06T05:56:06;102202.21;;;6.89;66.44
55550;BME280;41397;49.972;18.944;2024-03-06T05:59:07;102207.78;;;6.86;66.26
55550;BME280;41397;49.972;18.944;2024-03-06T06:02:08;102219.21;;;6.74;66.38
55550;BME280;41397;49.972;18.944;2024-03-06T06:05:10;102215.39;;;6.78;66.71
55550;BME280;41397;49.972;18.944;2024-03-06T06:08:11;102226.11;;;6.61;67.12
55550;BME280;41397;49.972;18.944;2024-03-06T06:11:12;102220.59;;;6.62;66.83
55550;BME280;41397;49.972;18.944;2024-03-06T06:14:14;102232.10;;;6.69;67.23
55550;BME280;41397;49.972;18.944;2024-03-06T06:17:15;102235.09;;;6.63;67.25
55550;BME280;41397;49.972;18.944;2024-03-06T06:20:19;102242.28;;;6.64;67.55
55550;BME280;41397;49.972;18.944;2024-03-06T06:23:21;102233.97;;;6.47;68.20
55550;BME280;41397;49.972;18.944;2024-03-06T06:26:22;102239.19;;;6.29;68.67
55550;BME280;41397;49.972;18.944;2024-03-06T06:29:23;102244.19;;;6.40;68.54
55550;BME280;41397;49.972;18.944;2024-03-06T06:32:27;102242.79;;;6.30;68.75
55550;BME280;41397;49.972;18.944;2024-03-06T06:35:28;102253.51;;;6.11;69.03
55550;BME280;41397;49.972;18.944;2024-03-06T06:38:30;102241.53;;;5.93;69.92
55550;BME280;41397;49.972;18.944;2024-03-06T06:41:31;102247.00;;;5.91;70.30
55550;BME280;41397;49.972;18.944;2024-03-06T06:44:35;102245.16;;;5.92;70.58
55550;BME280;41397;49.972;18.944;2024-03-06T06:47:38;102250.21;;;6.03;70.58
55550;BME280;41397;49.972;18.944;2024-03-06T06:50:40;102253.05;;;5.76;71.45
55550;BME280;41397;49.972;18.944;2024-03-06T06:53:41;102249.54;;;5.72;71.81
55550;BME280;41397;49.972;18.944;2024-03-06T06:56:45;102249.01;;;5.86;72.24
55550;BME280;41397;49.972;18.944;2024-03-06T06:59:46;102251.41;;;5.95;72.23
55550;BME280;41397;49.972;18.944;2024-03-06T07:02:47;102243.30;;;6.17;71.90
55550;BME280;41397;49.972;18.944;2024-03-06T07:05:48;102236.61;;;6.26;71.89
55550;BME280;41397;49.972;18.944;2024-03-06T07:08:52;102247.87;;;6.39;71.47
55550;BME280;41397;49.972;18.944;2024-03-06T07:11:53;102244.19;;;6.40;71.36
55550;BME280;41397;49.972;18.944;2024-03-06T07:14:54;102255.63;;;6.48;71.13
55550;BME280;41397;49.972;18.944;2024-03-06T07:17:55;102244.49;;;6.54;70.74
55550;BME280;41397;49.972;18.944;2024-03-06T07:21:00;102247.64;;;6.65;70.60
55550;BME280;41397;49.972;18.944;2024-03-06T07:24:01;102261.94;;;6.49;70.97
55550;BME280;41397;49.972;18.944;2024-03-06T07:27:03;102256.07;;;6.59;71.06
55550;BME280;41397;49.972;18.944;2024-03-06T07:30:05;102257.63;;;6.65;71.19
55550;BME280;41397;49.972;18.944;2024-03-06T07:33:08;102259.98;;;6.74;71.02
55550;BME280;41397;49.972;18.944;2024-03-06T07:36:09;102254.76;;;6.90;70.59
55550;BME280;41397;49.972;18.944;2024-03-06T07:39:10;102256.82;;;7.05;70.38
55550;BME280;41397;49.972;18.944;2024-03-06T07:42:13;102257.33;;;7.15;69.86
55550;BME280;41397;49.972;18.944;2024-03-06T07:45:16;102257.92;;;7.22;69.81
55550;BME280;41397;49.972;18.944;2024-03-06T07:48:17;102253.84;;;7.32;69.58
55550;BME280;41397;49.972;18.944;2024-03-06T07:51:18;102263.28;;;7.44;69.71
55550;BME280;41397;49.972;18.944;2024-03-06T07:54:20;102264.98;;;7.46;69.38
55550;BME280;41397;49.972;18.944;2024-03-06T07:57:24;102267.26;;;7.37;69.25
55550;BME280;41397;49.972;18.944;2024-03-06T08:00:25;102272.86;;;7.52;68.85
55550;BME280;41397;49.972;18.944;2024-03-06T08:03:27;102274.43;;;7.58;68.82
55550;BME280;41397;49.972;18.944;2024-03-06T08:06:29;102277.69;;;7.66;68.47
55550;BME280;41397;49.972;18.944;2024-03-06T08:09:34;102277.69;;;7.66;68.42
55550;BME280;41397;49.972;18.944;2024-03-06T08:12:35;102274.37;;;7.60;68.46
55550;BME280;41397;49.972;18.944;2024-03-06T08:15:36;102279.86;;;7.58;68.35
55550;BME280;41397;49.972;18.944;2024-03-06T08:18:37;102271.84;;;7.55;68.06
55550;BME280;41397;49.972;18.944;2024-03-06T08:21:40;102276.89;;;7.44;68.18
55550;BME280;41397;49.972;18.944;2024-03-06T08:24:41;102277.86;;;7.43;68.06
55550;BME280;41397;49.972;18.944;2024-03-06T08:27:42;102279.90;;;7.38;68.32
55550;BME280;41397;49.972;18.944;2024-03-06T08:30:43;102280.63;;;7.41;68.35
55550;BME280;41397;49.972;18.944;2024-03-06T08:33:48;102272.73;;;7.55;67.94
55550;BME280;41397;49.972;18.944;2024-03-06T08:36:49;102273.59;;;7.76;67.54
55550;BME280;41397;49.972;18.944;2024-03-06T08:39:50;102285.30;;;7.78;67.05
55550;BME280;41397;49.972;18.944;2024-03-06T08:42:51;102288.85;;;7.81;66.92
55550;BME280;41397;49.972;18.944;2024-03-06T08:45:56;102285.51;;;7.74;66.97
55550;BME280;41397;49.972;18.944;2024-03-06T08:48:57;102295.66;;;7.70;67.27
55550;BME280;41397;49.972;18.944;2024-03-06T08:51:58;102283.95;;;7.68;67.25
55550;BME280;41397;49.972;18.944;2024-03-06T08:55:00;102290.13;;;7.72;67.31
55550;BME280;41397;49.972;18.944;2024-03-06T08:58:04;102290.75;;;7.78;67.38
55550;BME280;41397;49.972;18.944;2024-03-06T09:01:05;102288.60;;;7.85;67.28
55550;BME280;41397;49.972;18.944;2024-03-06T09:04:06;102282.23;;;7.86;67.25
55550;BME280;41397;49.972;18.944;2024-03-06T09:07:08;102290.66;;;7.80;67.49
55550;BME280;41397;49.972;18.944;2024-03-06T09:10:13;102288.55;;;7.87;67.61
55550;BME280;41397;49.972;18.944;2024-03-06T09:13:14;102272.00;;;7.91;67.41
55550;BME280;41397;49.972;18.944;2024-03-06T09:16:15;102269.15;;;8.13;67.42
55550;BME280;41397;49.972;18.944;2024-03-06T09:19:18;102271.11;;;8.29;66.88
55550;BME280;41397;49.972;18.944;2024-03-06T09:22:21;102271.45;;;8.41;66.83
55550;BME280;41397;49.972;18.944;2024-03-06T09:25:22;102270.24;;;8.47;66.30
55550;BME280;41397;49.972;18.944;2024-03-06T09:28:23;102271.07;;;8.49;66.39
55550;BME280;41397;49.972;18.944;2024-03-06T09:31:24;102268.18;;;8.52;65.91
55550;BME280;41397;49.972;18.944;2024-03-06T09:34:28;102269.49;;;8.62;65.83
55550;BME280;41397;49.972;18.944;2024-03-06T09:37:29;102270.88;;;8.71;65.95
55550;BME280;41397;49.972;18.944;2024-03-06T09:40:31;102275.13;;;8.77;65.69
55550;BME280;41397;49.972;18.944;2024-03-06T09:43:32;102272.96;;;8.83;65.87
55550;BME280;41397;49.972;18.944;2024-03-06T09:46:36;102272.25;;;8.80;65.97
55550;BME280;41397;49.972;18.944;2024-03-06T09:49:39;102284.53;;;8.88;66.13
55550;BME280;41397;49.972;18.944;2024-03-06T09:52:41;102285.67;;;8.84;65.47
55550;BME280;41397;49.972;18.944;2024-03-06T09:55:48;102279.99;;;8.70;64.81
55550;BME280;41397;49.972;18.944;2024-03-06T09:58:50;102283.09;;;8.81;65.18
55550;BME280;41397;49.972;18.944;2024-03-06T10:01:56;102282.30;;;8.97;64.85
55550;BME280;41397;49.972;18.944;2024-03-06T10:04:58;102286.33;;;9.07;64.60
55550;BME280;41397;49.972;18.944;2024-03-06T10:08:00;102283.76;;;9.04;64.17
55550;BME280;41397;49.972;18.944;2024-03-06T10:11:02;102282.46;;;9.11;63.88
55550;BME280;41397;49.972;18.944;2024-03-06T10:14:03;102281.91;;;9.22;64.01
55550;BME280;41397;49.972;18.944;2024-03-06T10:17:04;102286.80;;;9.32;64.58
55550;BME280;41397;49.972;18.944;2024-03-06T10:23:20;102277.74;;;9.49;64.33
55550;BME280;41397;49.972;18.944;2024-03-06T10:26:21;102271.60;;;9.62;63.73
55550;BME280;41397;49.972;18.944;2024-03-06T10:29:22;102273.75;;;9.72;63.64
55550;BME280;41397;49.972;18.944;2024-03-06T10:32:25;102279.67;;;9.81;62.63
55550;BME280;41397;49.972;18.944;2024-03-06T10:35:26;102273.62;;;9.91;62.93
55550;BME280;41397;49.972;18.944;2024-03-06T10:38:31;102265.18;;;9.96;62.44
55550;BME280;41397;49.972;18.944;2024-03-06T10:41:38;102261.39;;;9.98;61.71
55550;BME280;41397;49.972;18.944;2024-03-06T10:44:51;102265.70;;;10.03;62.07
55550;BME280;41397;49.972;18.944;2024-03-06T10:47:52;102272.15;;;10.02;61.59
55550;BME280;41397;49.972;18.944;2024-03-06T10:50:56;102276.99;;;9.96;61.13
55550;BME280;41397;49.972;18.944;2024-03-06T10:53:58;102272.00;;;9.87;61.19
55550;BME280;41397;49.972;18.944;2024-03-06T10:57:01;102270.25;;;9.86;61.06
55550;BME280;41397;49.972;18.944;2024-03-06T11:00:03;102282.48;;;9.79;61.47
55550;BME280;41397;49.972;18.944;2024-03-06T11:03:10;102277.46;;;9.71;60.88
55550;BME280;41397;49.972;18.944;2024-03-06T11:06:14;102271.72;;;9.76;61.40
55550;BME280;41397;49.972;18.944;2024-03-06T11:09:22;102269.16;;;9.73;61.92
55550;BME280;41397;49.972;18.944;2024-03-06T11:15:38;102262.35;;;9.64;61.71
55550;BME280;41397;49.972;18.944;2024-03-06T11:18:42;102252.82;;;9.55;61.71
55550;BME280;41397;49.972;18.944;2024-03-06T11:21:47;102266.08;;;9.46;61.86
55550;BME280;41397;49.972;18.944;2024-03-06T11:24:52;102251.61;;;9.44;62.47
55550;BME280;41397;49.972;18.944;2024-03-06T11:28:03;102250.66;;;9.45;62.19
55550;BME280;41397;49.972;18.944;2024-03-06T11:31:07;102254.10;;;9.48;62.95
55550;BME280;41397;49.972;18.944;2024-03-06T11:34:21;102257.68;;;9.33;62.40
55550;BME280;41397;49.972;18.944;2024-03-06T11:37:23;102256.30;;;9.42;63.17
55550;BME280;41397;49.972;18.944;2024-03-06T11:40:26;102250.19;;;9.37;63.28
55550;BME280;41397;49.972;18.944;2024-03-06T11:43:28;102253.73;;;9.39;63.78
55550;BME280;41397;49.972;18.944;2024-03-06T11:49:42;102246.75;;;9.33;64.11
55550;BME280;41397;49.972;18.944;2024-03-06T11:52:43;102251.14;;;9.36;63.86
55550;BME280;41397;49.972;18.944;2024-03-06T11:55:45;102253.09;;;9.33;64.18
55550;BME280;41397;49.972;18.944;2024-03-06T11:58:47;102241.84;;;9.40;63.77
55550;BME280;41397;49.972;18.944;2024-03-06T12:01:48;102247.80;;;9.30;63.48
55550;BME280;41397;49.972;18.944;2024-03-06T12:04:49;102252.36;;;9.30;64.19
55550;BME280;41397;49.972;18.944;2024-03-06T12:07:53;102245.84;;;9.32;64.59
55550;BME280;41397;49.972;18.944;2024-03-06T12:10:55;102251.64;;;9.26;64.09
55550;BME280;41397;49.972;18.944;2024-03-06T12:13:59;102248.43;;;9.18;64.53
55550;BME280;41397;49.972;18.944;2024-03-06T12:17:01;102244.66;;;9.21;64.51
55550;BME280;41397;49.972;18.944;2024-03-06T12:20:10;102243.69;;;9.22;65.04
55550;BME280;41397;49.972;18.944;2024-03-06T12:23:21;102242.64;;;9.24;65.06
55550;BME280;41397;49.972;18.944;2024-03-06T12:26:28;102240.18;;;9.20;64.94
55550;BME280;41397;49.972;18.944;2024-03-06T12:29:32;102236.80;;;9.15;65.79
55550;BME280;41397;49.972;18.944;2024-03-06T12:32:33;102242.27;;;9.15;65.47
55550;BME280;41397;49.972;18.944;2024-03-06T12:35:36;102235.45;;;9.06;65.46
55550;BME280;41397;49.972;18.944;2024-03-06T12:38:37;102233.01;;;9.00;66.26
55550;BME280;41397;49.972;18.944;2024-03-06T12:41:39;102232.85;;;9.03;66.82
55550;BME280;41397;49.972;18.944;2024-03-06T12:45:14;102230.55;;;8.95;66.28
55550;BME280;41397;49.972;18.944;2024-03-06T12:48:16;102232.07;;;9.01;66.98
55550;BME280;41397;49.972;18.944;2024-03-06T12:51:17;102240.00;;;8.88;67.38
55550;BME280;41397;49.972;18.944;2024-03-06T12:54:22;102239.83;;;8.91;67.61
55550;BME280;41397;49.972;18.944;2024-03-06T12:57:23;102239.61;;;8.96;67.59
55550;BME280;41397;49.972;18.944;2024-03-06T13:00:25;102243.05;;;8.99;67.62
55550;BME280;41397;49.972;18.944;2024-03-06T13:03:26;102240.23;;;8.83;67.57
55550;BME280;41397;49.972;18.944;2024-03-06T13:06:31;102242.30;;;8.78;67.23
55550;BME280;41397;49.972;18.944;2024-03-06T13:09:32;102249.38;;;8.82;67.86
55550;BME280;41397;49.972;18.944;2024-03-06T13:12:33;102248.35;;;8.85;67.59
55550;BME280;41397;49.972;18.944;2024-03-06T13:15:34;102235.69;;;8.84;67.97
55550;BME280;41397;49.972;18.944;2024-03-06T13:18:39;102239.94;;;8.89;67.72
55550;BME280;41397;49.972;18.944;2024-03-06T13:21:40;102233.67;;;8.87;68.20
55550;BME280;41397;49.972;18.944;2024-03-06T13:24:41;102234.54;;;8.88;68.21
55550;BME280;41397;49.972;18.944;2024-03-06T13:27:42;102241.46;;;8.95;67.96
55550;BME280;41397;49.972;18.944;2024-03-06T13:30:47;102240.48;;;8.96;68.26
55550;BME280;41397;49.972;18.944;2024-03-06T13:33:48;102246.17;;;8.92;68.63
55550;BME280;41397;49.972;18.944;2024-03-06T13:36:49;102242.23;;;8.80;69.07
55550;BME280;41397;49.972;18.944;2024-03-06T13:39:50;102242.95;;;8.66;69.18
55550;BME280;41397;49.972;18.944;2024-03-06T13:42:55;102246.16;;;8.74;69.39
55550;BME280;41397;49.972;18.944;2024-03-06T13:45:57;102246.89;;;8.78;69.90
55550;BME280;41397;49.972;18.944;2024-03-06T13:48:58;102241.09;;;8.66;70.24
55550;BME280;41397;49.972;18.944;2024-03-06T13:52:02;102246.16;;;8.74;70.13
55550;BME280;41397;49.972;18.944;2024-03-06T13:55:04;102243.38;;;8.76;70.42
55550;BME280;41397;49.972;18.944;2024-03-06T13:58:05;102239.35;;;8.83;70.73
55550;BME280;41397;49.972;18.944;2024-03-06T14:01:07;102245.69;;;8.83;71.00
55550;BME280;41397;49.972;18.944;2024-03-06T14:04:08;102246.66;;;8.82;71.41
55550;BME280;41397;49.972;18.944;2024-03-06T14:07:11;102242.89;;;8.85;71.11
55550;BME280;41397;49.972;18.944;2024-03-06T14:10:14;102247.20;;;8.89;71.11
55550;BME280;41397;49.972;18.944;2024-03-06T14:13:19;102239.29;;;8.84;71.57
55550;BME280;41397;49.972;18.944;2024-03-06T14:16:20;102246.59;;;8.84;71.86
55550;BME280;41397;49.972;18.944;2024-03-06T14:19:21;102244.16;;;8.78;72.07
55550;BME280;41397;49.972;18.944;2024-03-06T14:22:23;102244.90;;;8.81;72.32
55550;BME280;41397;49.972;18.944;2024-03-06T14:25:24;102246.98;;;8.76;72.50
55550;BME280;41397;49.972;18.944;2024-03-06T14:28:25;102246.98;;;8.76;72.72
55550;BME280;41397;49.972;18.944;2024-03-06T14:31:28;102242.73;;;8.71;72.89
55550;BME280;41397;49.972;18.944;2024-03-06T14:34:29;102246.16;;;8.74;73.10
55550;BME280;41397;49.972;18.944;2024-03-06T14:37:30;102246.55;;;8.66;73.66
55550;BME280;41397;49.972;18.944;2024-03-06T14:40:31;102234.70;;;8.68;74.00
55550;BME280;41397;49.972;18.944;2024-03-06T14:43:36;102239.66;;;8.59;74.25
55550;BME280;41397;49.972;18.944;2024-03-06T14:46:40;102253.14;;;8.62;74.46
55550;BME280;41397;49.972;18.944;2024-03-06T14:49:44;102244.05;;;8.62;74.72
55550;BME280;41397;49.972;18.944;2024-03-06T14:52:46;102251.01;;;8.50;75.18
55550;BME280;41397;49.972;18.944;2024-03-06T14:55:47;102249.16;;;8.51;75.05
55550;BME280;41397;49.972;18.944;2024-03-06T14:58:48;102243.63;;;8.33;75.20
55550;BME280;41397;49.972;18.944;2024-03-06T15:01:49;102240.41;;;8.44;75.40
55550;BME280;41397;49.972;18.944;2024-03-06T15:04:52;102245.65;;;8.49;75.47
55550;BME280;41397;49.972;18.944;2024-03-06T15:07:53;102251.32;;;8.44;75.56
55550;BME280;41397;49.972;18.944;2024-03-06T15:10:54;102242.67;;;8.53;75.64
55550;BME280;41397;49.972;18.944;2024-03-06T15:13:58;102244.46;;;8.54;75.55
55550;BME280;41397;49.972;18.944;2024-03-06T15:17:00;102250.13;;;8.50;75.46
55550;BME280;41397;49.972;18.944;2024-03-06T15:20:01;102251.32;;;8.44;75.42
55550;BME280;41397;49.972;18.944;2024-03-06T15:23:03;102244.46;;;8.54;75.41
55550;BME280;41397;49.972;18.944;2024-03-06T15:26:05;102244.02;;;8.44;75.46
55550;BME280;41397;49.972;18.944;2024-03-06T15:29:06;102249.56;;;8.43;75.63
55550;BME280;41397;49.972;18.944;2024-03-06T15:32:08;102253.22;;;8.42;75.66
55550;BME280;41397;49.972;18.944;2024-03-06T15:35:10;102260.87;;;8.34;75.57
55550;BME280;41397;49.972;18.944;2024-03-06T15:38:12;102261.32;;;8.06;76.42
55550;BME280;41397;49.972;18.944;2024-03-06T15:41:13;102257.63;;;8.07;76.49
55550;BME280;41397;49.972;18.944;2024-03-06T15:44:16;102266.11;;;8.19;76.54
55550;BME280;41397;49.972;18.944;2024-03-06T15:47:18;102257.94;;;8.19;76.85
55550;BME280;41397;49.972;18.944;2024-03-06T15:50:19;102253.67;;;8.14;77.02
55550;BME280;41397;49.972;18.944;2024-03-06T15:53:21;102256.30;;;8.15;76.97
55550;BME280;41397;49.972;18.944;2024-03-06T15:56:24;102256.45;;;8.12;77.16
55550;BME280;41397;49.972;18.944;2024-03-06T15:59:25;102248.06;;;8.17;76.98
55550;BME280;41397;49.972;18.944;2024-03-06T16:02:29;102254.34;;;8.19;76.85